sensor_id;sensor_type;location;lat;lon;timestamp;P1;durP1;ratioP1;P2;durP2;ratioP2
34204;SDS011;20471;49.680;20.074;2022-11-20T00:01:14;258.20;;;128.30;;
34204;SDS011;20471;49.680;20.074;2022-11-20T00:03:45;195.75;;;110.15;;
34204;SDS011;20471;49.680;20.074;2022-11-20T00:06:15;171.55;;;103.80;;
34204;SDS011;20471;49.680;20.074;2022-11-20T00:08:44;171.47;;;103.35;;
34204;SDS011;20471;49.680;20.074;2022-11-20T00:11:12;210.78;;;116.33;;
34204;SDS011;20471;49.680;20.074;2022-11-20T00:13:45;173.90;;;105.65;;
34204;SDS011;20471;49.680;20.074;2022-11-20T00:16:15;160.88;;;99.30;;
34204;SDS011;20471;49.680;20.074;2022-11-20T00:18:45;159.70;;;98.70;;
34204;SDS011;20471;49.680;20.074;2022-11-20T00:21:13;148.90;;;94.83;;
34204;SDS011;20471;49.680;20.074;2022-11-20T00:23:43;142.37;;;93.62;;
34204;SDS011;20471;49.680;20.074;2022-11-20T00:26:11;149.85;;;94.25;;
34204;SDS011;20471;49.680;20.074;2022-11-20T00:28:41;155.43;;;96.10;;
34204;SDS011;20471;49.680;20.074;2022-11-20T00:33:41;146.18;;;92.17;;
34204;SDS011;20471;49.680;20.074;2022-11-20T00:36:10;139.18;;;89.22;;
34204;SDS011;20471;49.680;20.074;2022-11-20T00:38:40;135.57;;;90.07;;
34204;SDS011;20471;49.680;20.074;2022-11-20T00:41:08;141.18;;;89.80;;
34204;SDS011;20471;49.680;20.074;2022-11-20T00:43:38;123.97;;;79.27;;
34204;SDS011;20471;49.680;20.074;2022-11-20T00:46:06;117.10;;;75.32;;
34204;SDS011;20471;49.680;20.074;2022-11-20T00:48:36;116.60;;;73.62;;
34204;SDS011;20471;49.680;20.074;2022-11-20T00:51:02;117.72;;;73.50;;
34204;SDS011;20471;49.680;20.074;2022-11-20T00:53:29;109.30;;;69.75;;
34204;SDS011;20471;49.680;20.074;2022-11-20T00:56:00;119.20;;;74.10;;
34204;SDS011;20471;49.680;20.074;2022-11-20T00:58:31;111.80;;;71.95;;
34204;SDS011;20471;49.680;20.074;2022-11-20T01:03:39;117.33;;;74.60;;
34204;SDS011;20471;49.680;20.074;2022-11-20T01:08:40;119.75;;;77.30;;
34204;SDS011;20471;49.680;20.074;2022-11-20T01:11:09;122.60;;;78.22;;
34204;SDS011;20471;49.680;20.074;2022-11-20T01:13:42;116.62;;;75.42;;
34204;SDS011;20471;49.680;20.074;2022-11-20T01:16:18;117.70;;;77.03;;
34204;SDS011;20471;49.680;20.074;2022-11-20T01:18:52;130.22;;;82.40;;
34204;SDS011;20471;49.680;20.074;2022-11-20T01:21:22;129.18;;;81.65;;
34204;SDS011;20471;49.680;20.074;2022-11-20T01:23:55;127.00;;;80.85;;
34204;SDS011;20471;49.680;20.074;2022-11-20T01:26:24;126.30;;;80.17;;
34204;SDS011;20471;49.680;20.074;2022-11-20T01:28:54;128.25;;;80.40;;
34204;SDS011;20471;49.680;20.074;2022-11-20T01:31:22;115.50;;;75.75;;
34204;SDS011;20471;49.680;20.074;2022-11-20T01:33:59;122.20;;;77.15;;
34204;SDS011;20471;49.680;20.074;2022-11-20T01:36:29;115.10;;;73.90;;
34204;SDS011;20471;49.680;20.074;2022-11-20T01:38:59;110.88;;;69.65;;
34204;SDS011;20471;49.680;20.074;2022-11-20T01:41:29;104.80;;;67.78;;
34204;SDS011;20471;49.680;20.074;2022-11-20T01:44:18;108.72;;;72.97;;
34204;SDS011;20471;49.680;20.074;2022-11-20T01:49:37;116.85;;;73.72;;
34204;SDS011;20471;49.680;20.074;2022-11-20T01:52:12;105.65;;;71.42;;
34204;SDS011;20471;49.680;20.074;2022-11-20T01:57:14;114.80;;;72.25;;
34204;SDS011;20471;49.680;20.074;2022-11-20T01:59:48;122.98;;;72.35;;
34204;SDS011;20471;49.680;20.074;2022-11-20T02:02:20;121.67;;;77.20;;
34204;SDS011;20471;49.680;20.074;2022-11-20T02:04:48;130.55;;;80.05;;
34204;SDS011;20471;49.680;20.074;2022-11-20T02:07:17;130.75;;;82.45;;
34204;SDS011;20471;49.680;20.074;2022-11-20T02:09:46;130.10;;;80.25;;
34204;SDS011;20471;49.680;20.074;2022-11-20T02:12:12;128.47;;;79.25;;
34204;SDS011;20471;49.680;20.074;2022-11-20T02:14:41;123.92;;;78.05;;
34204;SDS011;20471;49.680;20.074;2022-11-20T02:17:07;125.47;;;77.45;;
34204;SDS011;20471;49.680;20.074;2022-11-20T02:19:34;190.03;;;102.60;;
34204;SDS011;20471;49.680;20.074;2022-11-20T02:22:14;134.90;;;77.85;;
34204;SDS011;20471;49.680;20.074;2022-11-20T02:24:45;126.35;;;74.82;;
34204;SDS011;20471;49.680;20.074;2022-11-20T02:27:14;125.55;;;74.75;;
34204;SDS011;20471;49.680;20.074;2022-11-20T02:32:18;127.75;;;80.83;;
34204;SDS011;20471;49.680;20.074;2022-11-20T02:34:47;124.47;;;76.42;;
34204;SDS011;20471;49.680;20.074;2022-11-20T02:37:14;121.87;;;75.85;;
34204;SDS011;20471;49.680;20.074;2022-11-20T02:39:41;125.58;;;74.77;;
34204;SDS011;20471;49.680;20.074;2022-11-20T02:42:10;114.97;;;71.25;;
34204;SDS011;20471;49.680;20.074;2022-11-20T02:44:37;115.60;;;71.92;;
34204;SDS011;20471;49.680;20.074;2022-11-20T02:47:03;119.95;;;72.82;;
34204;SDS011;20471;49.680;20.074;2022-11-20T02:49:30;116.47;;;72.95;;
34204;SDS011;20471;49.680;20.074;2022-11-20T02:51:56;120.28;;;74.80;;
34204;SDS011;20471;49.680;20.074;2022-11-20T02:54:23;138.05;;;87.25;;
34204;SDS011;20471;49.680;20.074;2022-11-20T02:56:51;123.15;;;73.55;;
34204;SDS011;20471;49.680;20.074;2022-11-20T02:59:18;113.70;;;69.90;;
34204;SDS011;20471;49.680;20.074;2022-11-20T03:01:45;112.28;;;70.35;;
34204;SDS011;20471;49.680;20.074;2022-11-20T03:04:11;121.85;;;71.57;;
34204;SDS011;20471;49.680;20.074;2022-11-20T03:06:38;112.75;;;68.17;;
34204;SDS011;20471;49.680;20.074;2022-11-20T03:09:04;122.20;;;74.30;;
34204;SDS011;20471;49.680;20.074;2022-11-20T03:11:31;102.82;;;63.85;;
34204;SDS011;20471;49.680;20.074;2022-11-20T03:14:01;93.35;;;59.77;;
34204;SDS011;20471;49.680;20.074;2022-11-20T03:16:31;96.67;;;61.00;;
34204;SDS011;20471;49.680;20.074;2022-11-20T03:18:58;92.40;;;57.78;;
34204;SDS011;20471;49.680;20.074;2022-11-20T03:21:25;100.50;;;61.05;;
34204;SDS011;20471;49.680;20.074;2022-11-20T03:23:53;98.10;;;62.48;;
34204;SDS011;20471;49.680;20.074;2022-11-20T03:26:21;104.95;;;65.08;;
34204;SDS011;20471;49.680;20.074;2022-11-20T03:28:51;95.12;;;59.10;;
34204;SDS011;20471;49.680;20.074;2022-11-20T03:31:22;71.65;;;43.50;;
34204;SDS011;20471;49.680;20.074;2022-11-20T03:33:52;94.93;;;60.37;;
34204;SDS011;20471;49.680;20.074;2022-11-20T03:36:20;94.00;;;59.03;;
34204;SDS011;20471;49.680;20.074;2022-11-20T03:38:47;92.37;;;59.45;;
34204;SDS011;20471;49.680;20.074;2022-11-20T03:46:25;92.65;;;57.85;;
34204;SDS011;20471;49.680;20.074;2022-11-20T03:48:52;94.07;;;58.68;;
34204;SDS011;20471;49.680;20.074;2022-11-20T03:51:24;92.15;;;58.50;;
34204;SDS011;20471;49.680;20.074;2022-11-20T03:53:56;92.55;;;58.05;;
34204;SDS011;20471;49.680;20.074;2022-11-20T03:56:26;87.10;;;56.25;;
34204;SDS011;20471;49.680;20.074;2022-11-20T03:58:55;99.05;;;60.80;;
34204;SDS011;20471;49.680;20.074;2022-11-20T04:03:55;97.25;;;55.12;;
34204;SDS011;20471;49.680;20.074;2022-11-20T04:06:24;114.03;;;72.67;;
34204;SDS011;20471;49.680;20.074;2022-11-20T04:09:02;124.70;;;79.55;;
34204;SDS011;20471;49.680;20.074;2022-11-20T04:11:31;129.35;;;82.05;;
34204;SDS011;20471;49.680;20.074;2022-11-20T04:14:01;135.90;;;84.07;;
34204;SDS011;20471;49.680;20.074;2022-11-20T04:16:31;138.95;;;84.87;;
34204;SDS011;20471;49.680;20.074;2022-11-20T04:19:00;131.75;;;82.57;;
34204;SDS011;20471;49.680;20.074;2022-11-20T04:21:30;135.57;;;82.40;;
34204;SDS011;20471;49.680;20.074;2022-11-20T04:23:57;130.52;;;82.60;;
34204;SDS011;20471;49.680;20.074;2022-11-20T04:26:25;131.82;;;81.70;;
34204;SDS011;20471;49.680;20.074;2022-11-20T04:28:54;129.93;;;81.65;;
34204;SDS011;20471;49.680;20.074;2022-11-20T04:31:22;136.82;;;80.92;;
34204;SDS011;20471;49.680;20.074;2022-11-20T04:33:51;133.87;;;82.08;;
34204;SDS011;20471;49.680;20.074;2022-11-20T04:36:19;137.55;;;83.33;;
34204;SDS011;20471;49.680;20.074;2022-11-20T04:41:25;133.00;;;80.65;;
34204;SDS011;20471;49.680;20.074;2022-11-20T04:43:56;197.37;;;119.25;;
34204;SDS011;20471;49.680;20.074;2022-11-20T04:46:27;190.68;;;112.00;;
34204;SDS011;20471;49.680;20.074;2022-11-20T04:48:55;170.20;;;103.55;;
34204;SDS011;20471;49.680;20.074;2022-11-20T04:51:21;152.70;;;93.95;;
34204;SDS011;20471;49.680;20.074;2022-11-20T04:53:49;144.95;;;90.60;;
34204;SDS011;20471;49.680;20.074;2022-11-20T04:56:16;136.95;;;85.77;;
34204;SDS011;20471;49.680;20.074;2022-11-20T04:58:43;141.97;;;88.00;;
34204;SDS011;20471;49.680;20.074;2022-11-20T05:01:11;139.32;;;87.25;;
34204;SDS011;20471;49.680;20.074;2022-11-20T05:03:41;131.85;;;82.95;;
34204;SDS011;20471;49.680;20.074;2022-11-20T05:06:09;125.35;;;81.20;;
34204;SDS011;20471;49.680;20.074;2022-11-20T05:08:39;129.90;;;79.35;;
34204;SDS011;20471;49.680;20.074;2022-11-20T05:11:06;126.50;;;78.92;;
34204;SDS011;20471;49.680;20.074;2022-11-20T05:13:37;123.25;;;77.12;;
34204;SDS011;20471;49.680;20.074;2022-11-20T05:16:04;138.32;;;82.72;;
34204;SDS011;20471;49.680;20.074;2022-11-20T05:18:38;138.22;;;81.30;;
34204;SDS011;20471;49.680;20.074;2022-11-20T05:21:06;137.05;;;81.90;;
34204;SDS011;20471;49.680;20.074;2022-11-20T05:23:34;131.52;;;79.00;;
34204;SDS011;20471;49.680;20.074;2022-11-20T05:26:01;124.15;;;75.97;;
34204;SDS011;20471;49.680;20.074;2022-11-20T05:28:29;121.70;;;76.37;;
34204;SDS011;20471;49.680;20.074;2022-11-20T05:31:06;122.47;;;75.28;;
34204;SDS011;20471;49.680;20.074;2022-11-20T05:33:39;114.17;;;72.67;;
34204;SDS011;20471;49.680;20.074;2022-11-20T05:36:08;120.90;;;74.17;;
34204;SDS011;20471;49.680;20.074;2022-11-20T05:38:36;117.82;;;73.85;;
34204;SDS011;20471;49.680;20.074;2022-11-20T05:43:34;109.92;;;68.37;;
34204;SDS011;20471;49.680;20.074;2022-11-20T05:46:01;114.15;;;70.52;;
34204;SDS011;20471;49.680;20.074;2022-11-20T05:48:30;115.30;;;71.12;;
34204;SDS011;20471;49.680;20.074;2022-11-20T05:50:57;121.95;;;72.67;;
34204;SDS011;20471;49.680;20.074;2022-11-20T05:53:26;118.17;;;72.55;;
34204;SDS011;20471;49.680;20.074;2022-11-20T05:58:36;117.40;;;73.75;;
34204;SDS011;20471;49.680;20.074;2022-11-20T06:01:05;122.42;;;76.15;;
34204;SDS011;20471;49.680;20.074;2022-11-20T06:03:47;127.60;;;78.52;;
34204;SDS011;20471;49.680;20.074;2022-11-20T06:06:16;131.30;;;82.97;;
34204;SDS011;20471;49.680;20.074;2022-11-20T06:08:44;142.10;;;85.47;;
34204;SDS011;20471;49.680;20.074;2022-11-20T06:11:12;129.97;;;81.60;;
34204;SDS011;20471;49.680;20.074;2022-11-20T06:13:41;126.18;;;82.72;;
34204;SDS011;20471;49.680;20.074;2022-11-20T06:16:09;136.68;;;84.13;;
34204;SDS011;20471;49.680;20.074;2022-11-20T06:18:37;140.07;;;85.03;;
34204;SDS011;20471;49.680;20.074;2022-11-20T06:21:05;127.92;;;79.95;;
34204;SDS011;20471;49.680;20.074;2022-11-20T06:23:38;130.57;;;83.12;;
34204;SDS011;20471;49.680;20.074;2022-11-20T06:28:38;129.18;;;80.60;;
34204;SDS011;20471;49.680;20.074;2022-11-20T06:31:06;126.85;;;80.80;;
34204;SDS011;20471;49.680;20.074;2022-11-20T06:33:35;131.25;;;77.90;;
34204;SDS011;20471;49.680;20.074;2022-11-20T06:36:02;124.42;;;78.17;;
34204;SDS011;20471;49.680;20.074;2022-11-20T06:38:29;118.28;;;74.15;;
34204;SDS011;20471;49.680;20.074;2022-11-20T06:40:57;118.00;;;75.12;;
34204;SDS011;20471;49.680;20.074;2022-11-20T06:43:23;121.60;;;76.02;;
34204;SDS011;20471;49.680;20.074;2022-11-20T06:45:52;124.95;;;77.37;;
34204;SDS011;20471;49.680;20.074;2022-11-20T06:48:19;117.40;;;74.15;;
34204;SDS011;20471;49.680;20.074;2022-11-20T06:50:46;117.13;;;76.60;;
34204;SDS011;20471;49.680;20.074;2022-11-20T06:53:13;122.53;;;79.53;;
34204;SDS011;20471;49.680;20.074;2022-11-20T06:55:43;134.93;;;86.02;;
34204;SDS011;20471;49.680;20.074;2022-11-20T06:58:12;141.00;;;89.65;;
34204;SDS011;20471;49.680;20.074;2022-11-20T07:00:39;129.72;;;85.40;;
34204;SDS011;20471;49.680;20.074;2022-11-20T07:03:07;126.38;;;81.92;;
34204;SDS011;20471;49.680;20.074;2022-11-20T07:05:36;145.40;;;93.37;;
34204;SDS011;20471;49.680;20.074;2022-11-20T07:08:04;142.03;;;88.37;;
34204;SDS011;20471;49.680;20.074;2022-11-20T07:10:31;139.20;;;89.22;;
34204;SDS011;20471;49.680;20.074;2022-11-20T07:12:58;136.05;;;84.55;;
34204;SDS011;20471;49.680;20.074;2022-11-20T07:15:25;134.63;;;83.75;;
34204;SDS011;20471;49.680;20.074;2022-11-20T07:17:51;129.10;;;82.37;;
34204;SDS011;20471;49.680;20.074;2022-11-20T07:20:18;143.10;;;85.42;;
34204;SDS011;20471;49.680;20.074;2022-11-20T07:22:44;130.45;;;82.55;;
34204;SDS011;20471;49.680;20.074;2022-11-20T07:25:11;124.92;;;80.25;;
34204;SDS011;20471;49.680;20.074;2022-11-20T07:27:38;119.05;;;76.62;;
34204;SDS011;20471;49.680;20.074;2022-11-20T07:30:05;122.40;;;79.25;;
34204;SDS011;20471;49.680;20.074;2022-11-20T07:32:32;121.17;;;76.37;;
34204;SDS011;20471;49.680;20.074;2022-11-20T07:34:59;119.22;;;78.47;;
34204;SDS011;20471;49.680;20.074;2022-11-20T07:37:25;124.47;;;78.92;;
34204;SDS011;20471;49.680;20.074;2022-11-20T07:39:52;127.82;;;77.92;;
34204;SDS011;20471;49.680;20.074;2022-11-20T07:42:19;119.87;;;77.65;;
34204;SDS011;20471;49.680;20.074;2022-11-20T07:44:45;110.48;;;69.22;;
34204;SDS011;20471;49.680;20.074;2022-11-20T07:47:12;107.92;;;67.32;;
34204;SDS011;20471;49.680;20.074;2022-11-20T07:49:38;112.42;;;70.17;;
34204;SDS011;20471;49.680;20.074;2022-11-20T07:52:05;109.75;;;71.12;;
34204;SDS011;20471;49.680;20.074;2022-11-20T07:54:32;103.45;;;65.57;;
34204;SDS011;20471;49.680;20.074;2022-11-20T07:56:58;115.17;;;73.95;;
34204;SDS011;20471;49.680;20.074;2022-11-20T07:59:25;116.47;;;74.35;;
34204;SDS011;20471;49.680;20.074;2022-11-20T08:01:51;119.72;;;79.97;;
34204;SDS011;20471;49.680;20.074;2022-11-20T08:04:18;124.55;;;79.65;;
34204;SDS011;20471;49.680;20.074;2022-11-20T08:06:45;114.47;;;75.72;;
34204;SDS011;20471;49.680;20.074;2022-11-20T08:09:11;117.70;;;76.77;;
34204;SDS011;20471;49.680;20.074;2022-11-20T08:11:38;121.40;;;77.80;;
34204;SDS011;20471;49.680;20.074;2022-11-20T08:14:23;125.38;;;81.82;;
34204;SDS011;20471;49.680;20.074;2022-11-20T08:16:50;146.02;;;93.55;;
34204;SDS011;20471;49.680;20.074;2022-11-20T08:19:17;160.50;;;102.67;;
34204;SDS011;20471;49.680;20.074;2022-11-20T08:21:44;159.67;;;104.07;;
34204;SDS011;20471;49.680;20.074;2022-11-20T08:24:11;153.53;;;101.25;;
34204;SDS011;20471;49.680;20.074;2022-11-20T08:26:38;141.53;;;92.35;;
34204;SDS011;20471;49.680;20.074;2022-11-20T08:29:06;143.85;;;91.12;;
34204;SDS011;20471;49.680;20.074;2022-11-20T08:31:33;129.15;;;84.42;;
34204;SDS011;20471;49.680;20.074;2022-11-20T08:34:01;121.95;;;74.82;;
34204;SDS011;20471;49.680;20.074;2022-11-20T08:36:28;112.95;;;71.45;;
34204;SDS011;20471;49.680;20.074;2022-11-20T08:38:58;106.63;;;64.35;;
34204;SDS011;20471;49.680;20.074;2022-11-20T08:41:25;129.10;;;74.53;;
34204;SDS011;20471;49.680;20.074;2022-11-20T08:43:54;123.20;;;72.03;;
34204;SDS011;20471;49.680;20.074;2022-11-20T08:46:26;122.55;;;72.95;;
34204;SDS011;20471;49.680;20.074;2022-11-20T08:49:01;112.62;;;70.25;;
34204;SDS011;20471;49.680;20.074;2022-11-20T08:51:28;100.20;;;61.05;;
34204;SDS011;20471;49.680;20.074;2022-11-20T08:53:54;109.03;;;66.90;;
34204;SDS011;20471;49.680;20.074;2022-11-20T08:56:21;104.27;;;65.08;;
34204;SDS011;20471;49.680;20.074;2022-11-20T08:58:49;132.15;;;77.67;;
34204;SDS011;20471;49.680;20.074;2022-11-20T09:01:18;134.32;;;80.38;;
34204;SDS011;20471;49.680;20.074;2022-11-20T09:03:46;151.05;;;91.67;;
34204;SDS011;20471;49.680;20.074;2022-11-20T09:06:13;162.03;;;93.58;;
34204;SDS011;20471;49.680;20.074;2022-11-20T09:08:40;161.32;;;95.20;;
34204;SDS011;20471;49.680;20.074;2022-11-20T09:11:07;154.18;;;91.78;;
34204;SDS011;20471;49.680;20.074;2022-11-20T09:13:34;132.95;;;81.47;;
34204;SDS011;20471;49.680;20.074;2022-11-20T09:18:33;123.90;;;76.33;;
34204;SDS011;20471;49.680;20.074;2022-11-20T09:21:05;120.35;;;73.60;;
34204;SDS011;20471;49.680;20.074;2022-11-20T09:23:37;122.55;;;72.35;;
34204;SDS011;20471;49.680;20.074;2022-11-20T09:26:05;105.10;;;63.45;;
34204;SDS011;20471;49.680;20.074;2022-11-20T09:28:35;112.88;;;65.95;;
34204;SDS011;20471;49.680;20.074;2022-11-20T09:33:35;111.57;;;64.25;;
34204;SDS011;20471;49.680;20.074;2022-11-20T09:36:02;102.95;;;58.02;;
34204;SDS011;20471;49.680;20.074;2022-11-20T09:38:29;94.47;;;58.15;;
34204;SDS011;20471;49.680;20.074;2022-11-20T09:40:57;93.70;;;54.83;;
34204;SDS011;20471;49.680;20.074;2022-11-20T09:43:50;89.55;;;52.38;;
34204;SDS011;20471;49.680;20.074;2022-11-20T09:46:37;96.37;;;54.58;;
34204;SDS011;20471;49.680;20.074;2022-11-20T09:51:59;87.27;;;53.00;;
34204;SDS011;20471;49.680;20.074;2022-11-20T09:54:33;81.35;;;47.33;;
34204;SDS011;20471;49.680;20.074;2022-11-20T09:57:11;80.05;;;47.25;;
34204;SDS011;20471;49.680;20.074;2022-11-20T09:59:41;79.25;;;47.48;;
34204;SDS011;20471;49.680;20.074;2022-11-20T10:05:10;106.85;;;60.05;;
34204;SDS011;20471;49.680;20.074;2022-11-20T10:10:52;92.00;;;53.55;;
34204;SDS011;20471;49.680;20.074;2022-11-20T10:13:47;94.62;;;57.05;;
34204;SDS011;20471;49.680;20.074;2022-11-20T10:30:30;76.15;;;45.67;;
34204;SDS011;20471;49.680;20.074;2022-11-20T10:33:04;79.55;;;46.88;;
34204;SDS011;20471;49.680;20.074;2022-11-20T10:35:42;74.80;;;44.90;;
34204;SDS011;20471;49.680;20.074;2022-11-20T10:40:55;70.75;;;42.35;;
34204;SDS011;20471;49.680;20.074;2022-11-20T10:46:04;73.97;;;44.42;;
34204;SDS011;20471;49.680;20.074;2022-11-20T10:48:38;71.55;;;42.80;;
34204;SDS011;20471;49.680;20.074;2022-11-20T10:57:10;106.75;;;55.38;;
34204;SDS011;20471;49.680;20.074;2022-11-20T11:08:03;80.77;;;48.20;;
34204;SDS011;20471;49.680;20.074;2022-11-20T11:13:18;68.83;;;40.30;;
34204;SDS011;20471;49.680;20.074;2022-11-20T11:15:49;68.78;;;39.63;;
34204;SDS011;20471;49.680;20.074;2022-11-20T11:18:23;68.25;;;39.78;;
34204;SDS011;20471;49.680;20.074;2022-11-20T11:20:56;66.45;;;38.50;;
34204;SDS011;20471;49.680;20.074;2022-11-20T11:26:18;71.05;;;40.03;;
34204;SDS011;20471;49.680;20.074;2022-11-20T11:31:28;72.15;;;42.53;;
34204;SDS011;20471;49.680;20.074;2022-11-20T11:41:40;76.25;;;44.73;;
34204;SDS011;20471;49.680;20.074;2022-11-20T11:47:25;72.08;;;41.20;;
34204;SDS011;20471;49.680;20.074;2022-11-20T11:55:50;65.03;;;37.70;;
34204;SDS011;20471;49.680;20.074;2022-11-20T12:06:48;67.45;;;39.27;;
34204;SDS011;20471;49.680;20.074;2022-11-20T12:09:24;67.95;;;40.12;;
34204;SDS011;20471;49.680;20.074;2022-11-20T12:12:02;79.30;;;46.23;;
34204;SDS011;20471;49.680;20.074;2022-11-20T12:14:37;83.22;;;47.48;;
34204;SDS011;20471;49.680;20.074;2022-11-20T12:17:10;81.78;;;48.20;;
34204;SDS011;20471;49.680;20.074;2022-11-20T12:19:39;79.20;;;47.20;;
34204;SDS011;20471;49.680;20.074;2022-11-20T12:22:12;77.08;;;45.58;;
34204;SDS011;20471;49.680;20.074;2022-11-20T12:30:48;86.28;;;51.53;;
34204;SDS011;20471;49.680;20.074;2022-11-20T12:33:41;85.75;;;47.90;;
34204;SDS011;20471;49.680;20.074;2022-11-20T12:36:40;80.53;;;47.25;;
34204;SDS011;20471;49.680;20.074;2022-11-20T12:39:30;83.90;;;48.30;;
34204;SDS011;20471;49.680;20.074;2022-11-20T12:42:16;78.65;;;45.85;;
34204;SDS011;20471;49.680;20.074;2022-11-20T12:48:33;80.20;;;46.10;;
34204;SDS011;20471;49.680;20.074;2022-11-20T12:54:34;81.17;;;46.88;;
34204;SDS011;20471;49.680;20.074;2022-11-20T13:00:01;81.02;;;48.20;;
34204;SDS011;20471;49.680;20.074;2022-11-20T13:08:53;87.97;;;49.13;;
34204;SDS011;20471;49.680;20.074;2022-11-20T13:11:27;91.60;;;50.45;;
34204;SDS011;20471;49.680;20.074;2022-11-20T13:14:24;93.60;;;52.80;;
34204;SDS011;20471;49.680;20.074;2022-11-20T13:17:20;96.28;;;51.83;;
34204;SDS011;20471;49.680;20.074;2022-11-20T13:20:12;91.67;;;53.90;;
34204;SDS011;20471;49.680;20.074;2022-11-20T13:25:29;92.72;;;50.55;;
34204;SDS011;20471;49.680;20.074;2022-11-20T13:33:22;88.20;;;51.63;;
34204;SDS011;20471;49.680;20.074;2022-11-20T13:38:46;108.42;;;60.08;;
34204;SDS011;20471;49.680;20.074;2022-11-20T13:41:25;109.03;;;58.40;;
34204;SDS011;20471;49.680;20.074;2022-11-20T13:44:14;115.95;;;62.75;;
34204;SDS011;20471;49.680;20.074;2022-11-20T13:46:50;102.97;;;58.28;;
34204;SDS011;20471;49.680;20.074;2022-11-20T13:49:18;109.10;;;59.60;;
34204;SDS011;20471;49.680;20.074;2022-11-20T13:58:15;145.55;;;76.50;;
34204;SDS011;20471;49.680;20.074;2022-11-20T14:03:51;132.00;;;71.95;;
34204;SDS011;20471;49.680;20.074;2022-11-20T14:08:57;138.37;;;76.25;;
34204;SDS011;20471;49.680;20.074;2022-11-20T14:11:26;141.92;;;78.87;;
34204;SDS011;20471;49.680;20.074;2022-11-20T14:13:59;149.18;;;79.95;;
34204;SDS011;20471;49.680;20.074;2022-11-20T14:16:30;117.82;;;66.82;;
34204;SDS011;20471;49.680;20.074;2022-11-20T14:21:52;101.12;;;58.33;;
34204;SDS011;20471;49.680;20.074;2022-11-20T14:24:43;95.38;;;56.88;;
34204;SDS011;20471;49.680;20.074;2022-11-20T14:29:40;117.00;;;63.63;;
34204;SDS011;20471;49.680;20.074;2022-11-20T14:32:08;120.50;;;65.47;;
34204;SDS011;20471;49.680;20.074;2022-11-20T14:34:37;123.13;;;68.47;;
34204;SDS011;20471;49.680;20.074;2022-11-20T14:37:10;120.17;;;68.92;;
34204;SDS011;20471;49.680;20.074;2022-11-20T14:39:41;119.50;;;69.90;;
34204;SDS011;20471;49.680;20.074;2022-11-20T14:42:19;123.90;;;70.35;;
34204;SDS011;20471;49.680;20.074;2022-11-20T14:44:49;126.90;;;72.55;;
34204;SDS011;20471;49.680;20.074;2022-11-20T14:47:18;118.13;;;69.53;;
34204;SDS011;20471;49.680;20.074;2022-11-20T14:49:48;126.22;;;71.15;;
34204;SDS011;20471;49.680;20.074;2022-11-20T14:54:51;129.72;;;73.70;;
34204;SDS011;20471;49.680;20.074;2022-11-20T14:57:25;127.50;;;73.42;;
34204;SDS011;20471;49.680;20.074;2022-11-20T15:00:05;125.62;;;73.83;;
34204;SDS011;20471;49.680;20.074;2022-11-20T15:05:13;123.07;;;72.32;;
34204;SDS011;20471;49.680;20.074;2022-11-20T15:07:42;130.35;;;75.60;;
34204;SDS011;20471;49.680;20.074;2022-11-20T15:10:13;134.10;;;76.67;;
34204;SDS011;20471;49.680;20.074;2022-11-20T15:12:53;122.70;;;71.60;;
34204;SDS011;20471;49.680;20.074;2022-11-20T15:15:25;119.62;;;71.70;;
34204;SDS011;20471;49.680;20.074;2022-11-20T15:18:01;92.27;;;53.90;;
34204;SDS011;20471;49.680;20.074;2022-11-20T15:22:59;72.55;;;40.08;;
34204;SDS011;20471;49.680;20.074;2022-11-20T15:25:26;52.88;;;31.87;;
34204;SDS011;20471;49.680;20.074;2022-11-20T15:27:56;75.87;;;43.87;;
34204;SDS011;20471;49.680;20.074;2022-11-20T15:30:24;97.70;;;55.00;;
34204;SDS011;20471;49.680;20.074;2022-11-20T15:32:51;108.55;;;63.15;;
34204;SDS011;20471;49.680;20.074;2022-11-20T15:35:17;85.03;;;49.63;;
34204;SDS011;20471;49.680;20.074;2022-11-20T15:37:44;103.60;;;59.48;;
34204;SDS011;20471;49.680;20.074;2022-11-20T15:40:11;117.45;;;65.90;;
34204;SDS011;20471;49.680;20.074;2022-11-20T15:42:38;116.82;;;65.03;;
34204;SDS011;20471;49.680;20.074;2022-11-20T15:45:07;118.10;;;65.15;;
34204;SDS011;20471;49.680;20.074;2022-11-20T15:47:35;116.12;;;65.90;;
34204;SDS011;20471;49.680;20.074;2022-11-20T15:50:03;104.03;;;59.88;;
34204;SDS011;20471;49.680;20.074;2022-11-20T15:52:32;110.68;;;65.45;;
34204;SDS011;20471;49.680;20.074;2022-11-20T15:54:58;116.42;;;69.22;;
34204;SDS011;20471;49.680;20.074;2022-11-20T15:57:25;120.37;;;68.80;;
34204;SDS011;20471;49.680;20.074;2022-11-20T15:59:54;114.03;;;68.52;;
34204;SDS011;20471;49.680;20.074;2022-11-20T16:02:21;106.58;;;63.92;;
34204;SDS011;20471;49.680;20.074;2022-11-20T16:04:48;105.55;;;62.27;;
34204;SDS011;20471;49.680;20.074;2022-11-20T16:07:14;124.58;;;70.45;;
34204;SDS011;20471;49.680;20.074;2022-11-20T16:09:41;121.47;;;75.72;;
34204;SDS011;20471;49.680;20.074;2022-11-20T16:12:09;149.87;;;89.15;;
34204;SDS011;20471;49.680;20.074;2022-11-20T16:14:38;136.82;;;81.37;;
34204;SDS011;20471;49.680;20.074;2022-11-20T16:17:24;122.07;;;70.52;;
34204;SDS011;20471;49.680;20.074;2022-11-20T16:19:52;107.50;;;68.02;;
34204;SDS011;20471;49.680;20.074;2022-11-20T16:22:19;109.35;;;66.00;;
34204;SDS011;20471;49.680;20.074;2022-11-20T16:24:46;132.22;;;79.05;;
34204;SDS011;20471;49.680;20.074;2022-11-20T16:27:14;150.53;;;95.62;;
34204;SDS011;20471;49.680;20.074;2022-11-20T16:29:41;149.87;;;97.47;;
34204;SDS011;20471;49.680;20.074;2022-11-20T16:32:08;127.87;;;79.42;;
34204;SDS011;20471;49.680;20.074;2022-11-20T16:34:35;118.93;;;76.47;;
34204;SDS011;20471;49.680;20.074;2022-11-20T16:37:02;104.75;;;64.65;;
34204;SDS011;20471;49.680;20.074;2022-11-20T16:39:29;106.50;;;68.50;;
34204;SDS011;20471;49.680;20.074;2022-11-20T16:41:55;118.62;;;73.78;;
34204;SDS011;20471;49.680;20.074;2022-11-20T16:44:23;131.00;;;74.72;;
34204;SDS011;20471;49.680;20.074;2022-11-20T16:46:49;123.30;;;74.77;;
34204;SDS011;20471;49.680;20.074;2022-11-20T16:49:16;123.53;;;75.20;;
34204;SDS011;20471;49.680;20.074;2022-11-20T16:51:43;113.35;;;72.22;;
34204;SDS011;20471;49.680;20.074;2022-11-20T16:54:10;115.03;;;72.37;;
34204;SDS011;20471;49.680;20.074;2022-11-20T16:56:37;112.92;;;71.20;;
34204;SDS011;20471;49.680;20.074;2022-11-20T16:59:05;116.90;;;67.78;;
34204;SDS011;20471;49.680;20.074;2022-11-20T17:01:32;142.00;;;76.95;;
34204;SDS011;20471;49.680;20.074;2022-11-20T17:04:03;182.82;;;85.80;;
34204;SDS011;20471;49.680;20.074;2022-11-20T17:06:33;150.25;;;79.40;;
34204;SDS011;20471;49.680;20.074;2022-11-20T17:09:02;124.85;;;70.40;;